Huvudsida
METAR-TAF:

METAR-TAF

Flygplatser :

Villmanstrands flygplats

Villmanstrand, Finland

latitud: 61-02-45N, longitud: 028-08-55E, höjd: 106 m

Aktuellt väderrapport

Denna rapport gjordes för 17 minuter sedan, klockan 02:50 UTC
Vind 3 kt från ost/sydost
Temperatur 12°C
Fuktighet 88%
Tryck 1015 hPa
Sikt 10 km eller mer
Inga moln under 1 500 m eller inga cumulonimbus

METAR: EFLP 180250Z AUTO 11003KT CAVOK 12/10 Q1015

Tid: 06:07 (03:07 UTC)

Väderprognos

Denna rapport gjordes för 9 timmar och 31 minuter sedan, klockan 17:36 UTC
Prognos gäller från 17 kl. 18 UTC till 17 kl. 21 UTC
Vind 4 kt från syd/sydost
Sikt 10 km eller mer
Inga moln under 1 500 m eller inga cumulonimbus

TAF: EFLP 171736Z 1718/1721 15004KT CAVOK

Aktuella väderrapporter och prognoser från 4000 flygplatser (METAR- och TAF-rapporter).

De tillgängliga stationerna syns som gula och röda prickar på kartan.

För musen över prickarna för att se namnen på stationerna.

Klicka sedan för att få väderrapporter och prognoser.

För att ändra kartan: Klicka på de gröna knapparna med ett svart kors på för att zooma in; den gröna knappen med ett streck på för att zooma ut; eller på de gröna pilarna för angränsande kartor.


METAR-TAF: